createdAt,value
2018-09-19T00:02:04.663Z,6.20
2018-09-19T00:04:33.820Z,6.07
2018-09-19T00:07:02.141Z,6.67
2018-09-19T00:09:30.586Z,6.20
2018-09-19T00:11:59.152Z,6.27
2018-09-19T00:14:27.486Z,6.37
2018-09-19T00:16:56.107Z,6.93
2018-09-19T00:19:24.385Z,6.13
2018-09-19T00:21:52.710Z,6.60
2018-09-19T00:24:21.069Z,6.73
2018-09-19T00:26:49.652Z,6.17
2018-09-19T00:29:18.227Z,6.67
2018-09-19T00:31:46.554Z,6.83
2018-09-19T00:34:14.882Z,6.43
2018-09-19T00:36:43.323Z,6.37
2018-09-19T00:39:11.608Z,6.03
2018-09-19T00:41:39.928Z,6.87
2018-09-19T00:44:08.204Z,6.60
2018-09-19T00:46:36.661Z,6.90
2018-09-19T00:49:05.175Z,6.53
2018-09-19T00:51:33.593Z,6.57
2018-09-19T00:54:01.908Z,7.27
2018-09-19T00:56:30.217Z,6.23
2018-09-19T00:58:58.580Z,6.23
2018-09-19T01:01:26.959Z,6.13
2018-09-19T01:03:55.273Z,5.83
2018-09-19T01:06:23.557Z,6.90
2018-09-19T01:08:51.927Z,6.43
2018-09-19T01:11:20.223Z,6.77
2018-09-19T01:13:48.807Z,6.93
2018-09-19T01:16:17.190Z,7.13
2018-09-19T01:18:45.513Z,6.70
2018-09-19T01:21:13.850Z,6.50
2018-09-19T01:23:42.181Z,6.60
2018-09-19T01:26:10.436Z,6.80
2018-09-19T01:28:38.753Z,6.30
2018-09-19T01:31:07.082Z,6.63
2018-09-19T01:33:35.460Z,6.47
2018-09-19T01:36:04.009Z,6.80
2018-09-19T01:38:32.298Z,6.83
2018-09-19T01:41:00.571Z,6.53
2018-09-19T01:43:28.870Z,7.17
2018-09-19T01:45:57.222Z,6.47
2018-09-19T01:48:25.503Z,6.50
2018-09-19T01:50:53.822Z,5.83
2018-09-19T01:53:22.231Z,6.50
2018-09-19T01:55:50.548Z,6.20
2018-09-19T01:58:18.937Z,7.30
2018-09-19T02:00:47.332Z,6.50
2018-09-19T02:03:15.619Z,6.60
2018-09-19T02:05:43.889Z,6.23
2018-09-19T02:08:12.273Z,5.53
2018-09-19T02:10:40.602Z,6.80
2018-09-19T02:13:08.947Z,6.70
2018-09-19T02:15:37.224Z,6.77
2018-09-19T02:18:05.522Z,6.87
2018-09-19T02:20:33.947Z,6.70
2018-09-19T02:23:02.612Z,6.50
2018-09-19T02:25:30.908Z,6.80
2018-09-19T02:27:59.257Z,6.33
2018-09-19T02:30:27.781Z,6.43
2018-09-19T02:32:56.245Z,6.67
2018-09-19T02:35:24.582Z,6.80
2018-09-19T02:37:52.948Z,6.30
2018-09-19T02:40:22.109Z,6.40
2018-09-19T02:42:50.431Z,6.20
2018-09-19T02:45:18.745Z,6.33
2018-09-19T02:47:47.449Z,6.00
2018-09-19T02:50:15.806Z,6.83
2018-09-19T02:52:44.173Z,6.93
2018-09-19T02:55:12.489Z,6.30
2018-09-19T02:57:40.769Z,6.47
2018-09-19T03:00:09.196Z,6.30
2018-09-19T03:02:37.497Z,6.40
2018-09-19T03:05:05.805Z,6.43
2018-09-19T03:07:34.125Z,7.00
2018-09-19T03:10:09.111Z,7.43
2018-09-19T03:12:37.456Z,7.10
2018-09-19T03:15:05.898Z,7.20
2018-09-19T03:17:34.368Z,7.10
2018-09-19T03:20:02.672Z,6.80
2018-09-19T03:22:31.031Z,7.33
2018-09-19T03:24:59.456Z,7.20
2018-09-19T03:27:27.821Z,6.20
2018-09-19T03:29:56.150Z,6.23
2018-09-19T03:32:24.557Z,7.20
2018-09-19T03:34:52.979Z,5.97
2018-09-19T03:37:21.639Z,6.33
2018-09-19T03:39:50.352Z,6.80
2018-09-19T03:42:18.841Z,5.97
2018-09-19T03:44:47.524Z,6.03
2018-09-19T03:47:15.968Z,6.67
2018-09-19T03:49:44.245Z,6.30
2018-09-19T03:52:12.498Z,6.00
2018-09-19T03:54:40.789Z,6.03
2018-09-19T03:57:09.043Z,6.53
2018-09-19T03:59:37.518Z,6.53
2018-09-19T04:02:05.902Z,7.00
2018-09-19T04:04:34.279Z,6.50
2018-09-19T04:07:02.572Z,6.13
2018-09-19T04:09:30.873Z,6.50
2018-09-19T04:11:59.211Z,6.90
2018-09-19T04:14:27.551Z,7.10
2018-09-19T04:16:55.840Z,6.47
2018-09-19T04:19:24.194Z,6.73
2018-09-19T04:21:53.510Z,6.83
2018-09-19T04:24:21.948Z,6.00
2018-09-19T04:26:50.568Z,6.53
2018-09-19T04:29:18.945Z,6.77
2018-09-19T04:31:47.354Z,6.53
2018-09-19T04:34:16.325Z,7.20
2018-09-19T04:36:44.768Z,6.80
2018-09-19T04:39:13.807Z,8.23
2018-09-19T04:41:42.314Z,7.23
2018-09-19T04:44:11.000Z,7.37
2018-09-19T04:46:40.026Z,6.90
2018-09-19T04:49:09.002Z,6.77
2018-09-19T04:51:38.551Z,7.00
2018-09-19T04:54:07.040Z,7.03
2018-09-19T04:56:36.118Z,7.27
2018-09-19T04:59:04.769Z,7.23
2018-09-19T05:01:33.112Z,7.07
2018-09-19T05:04:01.475Z,6.70
2018-09-19T05:06:29.802Z,7.30
2018-09-19T05:08:58.326Z,6.90
2018-09-19T05:11:26.710Z,6.40
2018-09-19T05:13:55.132Z,8.17
2018-09-19T05:16:23.454Z,6.73
2018-09-19T05:18:51.856Z,6.40
2018-09-19T05:21:20.350Z,7.13
2018-09-19T05:23:49.411Z,6.83
2018-09-19T05:26:17.876Z,6.93
2018-09-19T05:28:46.187Z,6.97
2018-09-19T05:31:14.554Z,6.67
2018-09-19T05:33:42.907Z,7.20
2018-09-19T05:36:11.270Z,6.37
2018-09-19T05:38:39.633Z,7.17
2018-09-19T05:41:08.313Z,6.73
2018-09-19T05:43:36.822Z,7.40
2018-09-19T05:46:05.497Z,6.57
2018-09-19T05:48:33.847Z,7.47
2018-09-19T05:51:02.188Z,7.10
2018-09-19T05:53:30.455Z,6.23
2018-09-19T05:55:58.993Z,7.20
2018-09-19T05:58:27.674Z,6.70
2018-09-19T06:00:56.524Z,6.47
2018-09-19T06:03:24.932Z,6.50
2018-09-19T06:05:53.288Z,6.73
2018-09-19T06:08:21.733Z,7.63
2018-09-19T06:10:50.224Z,7.90
2018-09-19T06:13:18.900Z,7.53
2018-09-19T06:15:47.203Z,7.77
2018-09-19T06:18:15.487Z,7.20
2018-09-19T06:20:43.793Z,7.13
2018-09-19T06:23:12.066Z,7.47
2018-09-19T06:25:40.384Z,6.00
2018-09-19T06:28:08.672Z,6.83
2018-09-19T06:30:37.100Z,6.73
2018-09-19T06:33:05.749Z,7.27
2018-09-19T06:35:34.077Z,6.87
2018-09-19T06:38:02.380Z,7.03
2018-09-19T06:40:30.789Z,7.40
2018-09-19T06:42:59.075Z,7.17
2018-09-19T06:45:27.394Z,7.93
2018-09-19T06:47:55.665Z,7.03
2018-09-19T06:50:24.114Z,6.43
2018-09-19T06:52:52.411Z,6.87
2018-09-19T06:55:20.709Z,7.03
2018-09-19T06:57:49.155Z,6.83
2018-09-19T07:00:17.617Z,6.70
2018-09-19T07:02:46.280Z,6.70
2018-09-19T07:05:14.694Z,6.40
2018-09-19T07:07:43.114Z,5.93
2018-09-19T07:10:11.445Z,6.60
2018-09-19T07:12:39.776Z,6.33
2018-09-19T07:15:08.119Z,6.70
2018-09-19T07:17:36.525Z,6.93
2018-09-19T07:20:04.904Z,6.40
2018-09-19T07:22:33.387Z,6.37
2018-09-19T07:25:01.790Z,5.97
2018-09-19T07:27:30.121Z,5.97
2018-09-19T07:29:58.462Z,6.17
2018-09-19T07:32:26.787Z,5.33
2018-09-19T07:34:55.231Z,5.90
2018-09-19T07:37:23.642Z,5.70
2018-09-19T07:39:52.008Z,5.07
2018-09-19T07:42:20.495Z,5.57
2018-09-19T07:44:48.825Z,5.03
2018-09-19T07:47:17.338Z,5.00
2018-09-19T07:49:46.058Z,5.13
2018-09-19T07:52:14.487Z,4.53
2018-09-19T07:54:42.883Z,4.90
2018-09-19T07:57:11.220Z,4.77
2018-09-19T07:59:39.548Z,5.10
2018-09-19T08:02:08.034Z,5.20
2018-09-19T08:04:36.395Z,4.40
2018-09-19T08:07:04.691Z,4.67
2018-09-19T08:09:32.962Z,4.90
2018-09-19T08:12:01.326Z,4.77
2018-09-19T08:14:29.661Z,4.47
2018-09-19T08:16:58.113Z,4.57
2018-09-19T08:19:26.435Z,4.63
2018-09-19T08:21:54.932Z,4.23
2018-09-19T08:24:23.283Z,5.13
2018-09-19T08:26:51.732Z,4.50
2018-09-19T08:29:20.052Z,4.37
2018-09-19T08:31:48.384Z,4.20
2018-09-19T08:34:16.647Z,4.57
2018-09-19T08:36:45.000Z,4.53
2018-09-19T08:39:13.259Z,3.92
2018-09-19T08:41:41.575Z,4.43
2018-09-19T08:44:09.839Z,4.17
2018-09-19T08:46:38.192Z,4.03
2018-09-19T08:49:06.498Z,4.40
2018-09-19T08:51:34.899Z,3.93
2018-09-19T08:54:03.166Z,4.07
2018-09-19T08:56:31.468Z,3.90
2018-09-19T08:58:59.843Z,3.60
2018-09-19T09:01:28.321Z,4.17
2018-09-19T09:03:56.673Z,3.97
2018-09-19T09:06:24.997Z,3.80
2018-09-19T09:08:53.374Z,4.50
2018-09-19T09:11:21.652Z,3.93
2018-09-19T09:13:49.980Z,4.23
2018-09-19T09:16:18.599Z,4.20
2018-09-19T09:18:46.943Z,3.60
2018-09-19T09:21:15.300Z,4.07
2018-09-19T09:23:43.604Z,3.80
2018-09-19T09:26:12.060Z,3.87
2018-09-19T09:28:40.310Z,3.63
2018-09-19T09:31:08.659Z,4.17
2018-09-19T09:33:37.347Z,3.77
2018-09-19T09:36:05.695Z,3.30
2018-09-19T09:38:34.183Z,3.37
2018-09-19T09:41:02.578Z,3.17
2018-09-19T09:43:30.954Z,3.03
2018-09-19T09:45:59.329Z,3.37
2018-09-19T09:48:27.683Z,3.20
2018-09-19T09:50:56.078Z,3.20
2018-09-19T09:53:24.479Z,3.03
2018-09-19T09:55:52.690Z,3.47
2018-09-19T09:58:20.992Z,3.33
2018-09-19T10:00:49.310Z,2.97
2018-09-19T10:03:17.696Z,2.80
2018-09-19T10:05:46.025Z,3.20
2018-09-19T10:08:14.340Z,2.83
2018-09-19T10:10:42.637Z,2.90
2018-09-19T10:13:11.112Z,2.52
2018-09-19T10:15:39.454Z,2.95
2018-09-19T10:18:07.779Z,2.83
2018-09-19T10:20:36.069Z,2.33
2018-09-19T10:23:04.475Z,2.80
2018-09-19T10:25:32.805Z,3.27
2018-09-19T10:28:01.159Z,2.80
2018-09-19T10:30:29.465Z,3.05
2018-09-19T10:32:57.740Z,2.77
2018-09-19T10:35:26.050Z,3.62
2018-09-19T10:37:54.354Z,2.58
2018-09-19T10:40:22.631Z,2.92
2018-09-19T10:42:50.930Z,3.85
2018-09-19T10:45:19.197Z,3.40
2018-09-19T10:47:47.800Z,3.40
2018-09-19T10:50:16.128Z,2.77
2018-09-19T10:52:44.736Z,2.92
2018-09-19T10:55:13.032Z,2.83
2018-09-19T10:57:41.343Z,3.15
2018-09-19T11:00:09.698Z,3.30
2018-09-19T11:02:38.511Z,3.10
2018-09-19T11:05:07.122Z,3.60
2018-09-19T11:07:35.495Z,2.92
2018-09-19T11:10:04.174Z,3.22
2018-09-19T11:12:32.613Z,3.52
2018-09-19T11:15:01.111Z,3.12
2018-09-19T11:17:29.480Z,3.30
2018-09-19T11:19:57.930Z,3.35
2018-09-19T11:22:26.350Z,3.35
2018-09-19T11:24:55.028Z,3.05
2018-09-19T11:27:23.618Z,2.98
2018-09-19T11:29:52.161Z,3.17
2018-09-19T11:32:20.471Z,3.00
2018-09-19T11:34:48.855Z,2.85
2018-09-19T11:37:17.303Z,3.10
2018-09-19T11:39:45.752Z,3.33
2018-09-19T11:42:14.363Z,3.42
2018-09-19T11:44:42.783Z,3.17
2018-09-19T11:47:12.051Z,3.02
2018-09-19T11:49:41.543Z,3.15
2018-09-19T11:52:10.914Z,2.87
2018-09-19T11:54:40.265Z,2.98
2018-09-19T11:57:08.720Z,2.92
2018-09-19T11:59:37.842Z,3.22
2018-09-19T12:02:07.209Z,2.67
2018-09-19T12:04:35.791Z,2.67
2018-09-19T12:07:04.254Z,3.02
2018-09-19T12:09:32.682Z,2.72
2018-09-19T12:12:01.494Z,2.90
2018-09-19T12:14:30.512Z,2.98
2018-09-19T12:16:58.929Z,2.70
2018-09-19T12:19:28.120Z,2.65
2018-09-19T12:21:56.464Z,3.10
2018-09-19T12:24:26.140Z,3.10
2018-09-19T12:26:55.738Z,2.87
2018-09-19T12:29:25.115Z,2.72
2018-09-19T12:31:53.786Z,2.90
2018-09-19T12:34:22.185Z,2.87
2018-09-19T12:36:50.747Z,3.10
2018-09-19T12:39:19.198Z,3.02
2018-09-19T12:41:47.608Z,2.22
2018-09-19T12:44:16.621Z,3.30
2018-09-19T12:46:45.020Z,2.80
2018-09-19T12:49:14.678Z,2.90
2018-09-19T12:51:44.436Z,3.02
2018-09-19T12:54:13.856Z,2.77
2018-09-19T12:56:43.321Z,2.70
2018-09-19T12:59:12.407Z,2.80
2018-09-19T13:01:41.664Z,2.60
2018-09-19T13:04:10.791Z,2.75
2018-09-19T13:06:40.300Z,2.92
2018-09-19T13:09:10.545Z,2.80
2018-09-19T13:11:39.320Z,2.60
2018-09-19T13:14:08.735Z,2.60
2018-09-19T13:16:38.025Z,2.50
2018-09-19T13:19:07.004Z,2.83
2018-09-19T13:21:36.324Z,2.72
2018-09-19T13:24:04.800Z,2.70
2018-09-19T13:26:33.285Z,2.92
2018-09-19T13:29:01.760Z,2.83
2018-09-19T13:31:30.306Z,2.70
2018-09-19T13:33:58.953Z,2.62
2018-09-19T13:36:27.402Z,2.83
2018-09-19T13:38:55.677Z,2.08
2018-09-19T13:41:24.390Z,2.80
2018-09-19T13:43:52.797Z,2.20
2018-09-19T13:46:21.158Z,2.95
2018-09-19T13:48:57.127Z,2.58
2018-09-19T13:51:26.169Z,3.25
2018-09-19T13:53:54.643Z,2.92
2018-09-19T13:56:23.172Z,3.17
2018-09-19T13:58:51.831Z,2.70
2018-09-19T14:01:20.251Z,2.60
2018-09-19T14:03:48.593Z,2.50
2018-09-19T14:06:16.979Z,2.92
2018-09-19T14:08:45.423Z,2.90
2018-09-19T14:11:13.850Z,2.62
2018-09-19T14:13:42.403Z,2.50
2018-09-19T14:16:12.042Z,2.77
2018-09-19T14:18:41.307Z,2.67
2018-09-19T14:21:10.563Z,2.62
2018-09-19T14:23:39.301Z,3.70
2018-09-19T14:26:07.725Z,2.75
2018-09-19T14:28:36.295Z,3.10
2018-09-19T14:31:05.069Z,2.83
2018-09-19T14:33:33.572Z,2.47
2018-09-19T14:36:01.996Z,3.22
2018-09-19T14:38:30.338Z,2.87
2018-09-19T14:40:58.758Z,2.80
2018-09-19T14:43:27.690Z,3.10
2018-09-19T14:45:56.150Z,3.42
2018-09-19T14:48:24.542Z,3.52
2018-09-19T14:50:52.771Z,3.08
2018-09-19T14:53:21.695Z,3.05
2018-09-19T14:55:50.074Z,3.20
2018-09-19T14:58:18.463Z,3.15
2018-09-19T15:00:46.872Z,2.87
2018-09-19T15:03:15.349Z,2.83
2018-09-19T15:05:43.662Z,3.00
2018-09-19T15:08:11.983Z,2.80
2018-09-19T15:10:40.367Z,2.55
2018-09-19T15:13:08.800Z,2.95
2018-09-19T15:15:37.282Z,4.67
2018-09-19T15:18:05.716Z,4.47
2018-09-19T15:20:34.040Z,4.60
2018-09-19T15:23:02.508Z,4.15
2018-09-19T15:25:30.901Z,3.67
2018-09-19T15:27:59.424Z,3.50
2018-09-19T15:30:27.717Z,4.07
2018-09-19T15:32:56.138Z,3.50
2018-09-19T15:35:24.634Z,4.30
2018-09-19T15:37:53.152Z,3.57
2018-09-19T15:40:21.798Z,3.80
2018-09-19T15:42:50.162Z,5.00
2018-09-19T15:45:18.443Z,4.43
2018-09-19T15:47:47.597Z,3.83
2018-09-19T15:50:23.223Z,4.13
2018-09-19T15:52:51.811Z,3.47
2018-09-19T15:55:21.161Z,3.60
2018-09-19T15:57:49.620Z,3.77
2018-09-19T16:00:18.215Z,3.60
2018-09-19T16:02:46.717Z,3.90
2018-09-19T16:05:15.205Z,3.80
2018-09-19T16:07:43.853Z,4.10
2018-09-19T16:10:12.232Z,3.40
2018-09-19T16:12:40.588Z,4.10
2018-09-19T16:15:09.020Z,4.10
2018-09-19T16:17:37.430Z,3.27
2018-09-19T16:20:05.813Z,3.80
2018-09-19T16:22:34.120Z,4.53
2018-09-19T16:25:02.516Z,3.70
2018-09-19T16:27:30.847Z,3.90
2018-09-19T16:29:59.363Z,3.83
2018-09-19T16:32:27.688Z,4.47
2018-09-19T16:34:56.068Z,4.20
2018-09-19T16:37:24.584Z,4.03
2018-09-19T16:39:52.877Z,4.03
2018-09-19T16:42:21.198Z,4.03
2018-09-19T16:44:49.595Z,3.50
2018-09-19T16:47:17.897Z,3.50
2018-09-19T16:49:46.207Z,3.30
2018-09-19T16:52:14.532Z,3.90
2018-09-19T16:54:42.839Z,3.10
2018-09-19T16:57:11.183Z,3.53
2018-09-19T16:59:39.501Z,3.47
2018-09-19T17:02:08.050Z,3.00
2018-09-19T17:04:36.552Z,3.57
2018-09-19T17:07:05.064Z,3.60
2018-09-19T17:09:33.388Z,3.53
2018-09-19T17:12:01.693Z,4.67
2018-09-19T17:14:30.139Z,6.43
2018-09-19T17:16:58.460Z,3.83
2018-09-19T17:19:26.929Z,4.37
2018-09-19T17:21:55.356Z,4.50
2018-09-19T17:24:23.661Z,5.43
2018-09-19T17:26:52.160Z,4.80
2018-09-19T17:29:20.962Z,4.43
2018-09-19T17:31:49.685Z,4.77
2018-09-19T17:34:18.316Z,4.30
2018-09-19T17:36:46.909Z,3.93
2018-09-19T17:39:15.336Z,4.47
2018-09-19T17:41:43.767Z,3.70
2018-09-19T17:44:12.221Z,4.00
2018-09-19T17:46:40.665Z,4.23
2018-09-19T17:49:09.212Z,3.90
2018-09-19T17:51:37.575Z,4.67
2018-09-19T17:54:07.203Z,4.50
2018-09-19T17:56:35.689Z,3.93
2018-09-19T17:59:04.197Z,3.80
2018-09-19T18:01:32.503Z,4.23
2018-09-19T18:04:01.182Z,3.83
2018-09-19T18:06:29.463Z,3.80
2018-09-19T18:08:57.751Z,3.80
2018-09-19T18:11:26.243Z,4.23
2018-09-19T18:13:54.573Z,4.63
2018-09-19T18:16:22.900Z,4.60
2018-09-19T18:18:51.398Z,4.73
2018-09-19T18:21:19.712Z,4.50
2018-09-19T18:23:48.095Z,4.20
2018-09-19T18:26:16.445Z,4.23
2018-09-19T18:28:44.796Z,3.87
2018-09-19T18:31:13.123Z,4.17
2018-09-19T18:33:41.415Z,4.00
2018-09-19T18:36:09.807Z,4.90
2018-09-19T18:38:38.255Z,4.03
2018-09-19T18:41:06.558Z,4.20
2018-09-19T18:43:34.989Z,4.40
2018-09-19T18:46:03.327Z,4.30
2018-09-19T18:48:31.650Z,4.87
2018-09-19T18:51:00.224Z,4.43
2018-09-19T18:53:28.551Z,4.67
2018-09-19T18:55:56.916Z,4.73
2018-09-19T18:58:25.216Z,4.67
2018-09-19T19:00:53.545Z,4.40
2018-09-19T19:03:21.824Z,4.93
2018-09-19T19:05:50.148Z,4.77
2018-09-19T19:08:18.436Z,5.03
2018-09-19T19:10:47.132Z,4.40
2018-09-19T19:13:15.452Z,5.00
2018-09-19T19:15:43.780Z,4.80
2018-09-19T19:18:12.099Z,5.90
2018-09-19T19:20:40.448Z,6.00
2018-09-19T19:23:08.772Z,5.13
2018-09-19T19:25:37.198Z,5.70
2018-09-19T19:28:05.754Z,5.00
2018-09-19T19:30:34.217Z,4.23
2018-09-19T19:33:02.528Z,4.60
2018-09-19T19:35:30.949Z,5.90
2018-09-19T19:37:59.287Z,8.27
2018-09-19T19:40:27.729Z,5.60
2018-09-19T19:42:56.132Z,5.50
2018-09-19T19:45:24.589Z,7.03
2018-09-19T19:47:52.851Z,7.13
2018-09-19T19:50:21.244Z,6.27
2018-09-19T19:52:49.614Z,7.07
2018-09-19T19:55:18.007Z,5.93
2018-09-19T19:57:46.630Z,6.27
2018-09-19T20:00:15.130Z,6.37
2018-09-19T20:02:43.470Z,5.50
2018-09-19T20:05:11.827Z,5.87
2018-09-19T20:07:40.142Z,5.73
2018-09-19T20:10:08.579Z,6.37
2018-09-19T20:12:36.942Z,5.40
2018-09-19T20:15:05.549Z,5.33
2018-09-19T20:17:33.831Z,5.43
2018-09-19T20:20:02.147Z,6.73
2018-09-19T20:22:30.507Z,5.83
2018-09-19T20:24:58.820Z,6.40
2018-09-19T20:27:27.157Z,6.80
2018-09-19T20:29:55.528Z,6.83
2018-09-19T20:32:23.829Z,5.13
2018-09-19T20:34:52.147Z,5.80
2018-09-19T20:37:20.522Z,5.10
2018-09-19T20:39:49.007Z,5.90
2018-09-19T20:42:17.486Z,5.33
2018-09-19T20:44:45.997Z,5.27
2018-09-19T20:47:14.457Z,5.17
2018-09-19T20:49:42.823Z,5.77
2018-09-19T20:52:11.299Z,6.00
2018-09-19T20:54:39.692Z,5.33
2018-09-19T20:57:08.147Z,5.37
2018-09-19T20:59:36.546Z,5.53
2018-09-19T21:02:04.810Z,5.73
2018-09-19T21:04:33.251Z,6.10
2018-09-19T21:07:01.467Z,5.57
2018-09-19T21:09:29.792Z,5.40
2018-09-19T21:11:58.079Z,4.93
2018-09-19T21:14:26.439Z,5.43
2018-09-19T21:16:54.884Z,5.73
2018-09-19T21:19:23.295Z,6.10
2018-09-19T21:21:51.733Z,5.60
2018-09-19T21:24:20.045Z,5.70
2018-09-19T21:26:48.493Z,5.77
2018-09-19T21:29:17.047Z,5.53
2018-09-19T21:31:45.698Z,5.30
2018-09-19T21:34:13.994Z,5.73
2018-09-19T21:36:42.523Z,6.00
2018-09-19T21:39:11.531Z,6.37
2018-09-19T21:41:40.265Z,6.47
2018-09-19T21:44:08.595Z,5.80
2018-09-19T21:46:36.960Z,6.10
2018-09-19T21:49:05.723Z,6.90
2018-09-19T21:51:34.219Z,6.00
2018-09-19T21:54:02.578Z,5.77
2018-09-19T21:56:30.945Z,6.20
2018-09-19T21:58:59.227Z,6.07
2018-09-19T22:01:33.048Z,6.40
2018-09-19T22:04:01.352Z,6.30
2018-09-19T22:06:29.867Z,5.20
2018-09-19T22:08:58.313Z,6.00
2018-09-19T22:11:26.635Z,5.90
2018-09-19T22:13:54.951Z,6.00
2018-09-19T22:16:23.365Z,6.40
2018-09-19T22:18:51.655Z,6.37
2018-09-19T22:21:20.037Z,6.53
2018-09-19T22:23:48.390Z,6.00
2018-09-19T22:26:16.936Z,6.17
2018-09-19T22:28:45.632Z,6.27
2018-09-19T22:31:14.061Z,6.43
2018-09-19T22:33:42.493Z,6.70
2018-09-19T22:36:10.807Z,6.30
2018-09-19T22:38:39.283Z,6.90
2018-09-19T22:41:07.700Z,6.23
2018-09-19T22:43:36.025Z,6.77
2018-09-19T22:46:04.596Z,5.87
2018-09-19T22:48:32.909Z,6.27
2018-09-19T22:51:01.485Z,6.10
2018-09-19T22:53:29.995Z,6.17
2018-09-19T22:55:58.326Z,6.70
2018-09-19T22:58:26.650Z,6.40
2018-09-19T23:00:54.994Z,5.60
2018-09-19T23:03:23.367Z,16.23
2018-09-19T23:05:51.876Z,7.30
2018-09-19T23:08:21.036Z,6.53
2018-09-19T23:10:49.617Z,6.17
2018-09-19T23:13:18.028Z,5.87
2018-09-19T23:15:46.435Z,5.80
2018-09-19T23:18:14.750Z,5.90
2018-09-19T23:20:43.071Z,5.47
2018-09-19T23:23:11.426Z,5.83
2018-09-19T23:25:39.781Z,5.73
2018-09-19T23:28:08.207Z,5.53
2018-09-19T23:30:36.540Z,5.40
2018-09-19T23:33:05.020Z,5.27
2018-09-19T23:35:33.325Z,5.90
2018-09-19T23:38:01.632Z,5.30
2018-09-19T23:40:29.921Z,5.23
2018-09-19T23:42:58.256Z,5.40
2018-09-19T23:45:26.582Z,5.57
2018-09-19T23:47:54.885Z,6.00
2018-09-19T23:50:23.146Z,6.30
2018-09-19T23:52:51.515Z,6.00
2018-09-19T23:55:20.006Z,5.33
2018-09-19T23:57:48.483Z,5.77
